sensor_id;sensor_type;location;lat;lon;timestamp;P1;durP1;ratioP1;P2;durP2;ratioP2
12112;SDS011;6120;52.250;8.478;2023-06-14T00:00:41;2.13;;;1.90;;
12112;SDS011;6120;52.250;8.478;2023-06-14T00:03:08;3.23;;;1.77;;
12112;SDS011;6120;52.250;8.478;2023-06-14T00:05:36;2.78;;;2.05;;
12112;SDS011;6120;52.250;8.478;2023-06-14T00:08:07;2.28;;;2.00;;
12112;SDS011;6120;52.250;8.478;2023-06-14T00:10:34;2.22;;;2.00;;
12112;SDS011;6120;52.250;8.478;2023-06-14T00:13:02;1.90;;;1.80;;
12112;SDS011;6120;52.250;8.478;2023-06-14T00:15:33;1.70;;;1.60;;
12112;SDS011;6120;52.250;8.478;2023-06-14T00:18:00;2.00;;;1.80;;
12112;SDS011;6120;52.250;8.478;2023-06-14T00:20:28;2.58;;;1.77;;
12112;SDS011;6120;52.250;8.478;2023-06-14T00:22:57;1.85;;;1.75;;
12112;SDS011;6120;52.250;8.478;2023-06-14T00:25:24;2.58;;;1.95;;
12112;SDS011;6120;52.250;8.478;2023-06-14T00:27:55;2.75;;;1.98;;
12112;SDS011;6120;52.250;8.478;2023-06-14T00:30:22;2.30;;;2.10;;
12112;SDS011;6120;52.250;8.478;2023-06-14T00:32:49;2.63;;;1.70;;
12112;SDS011;6120;52.250;8.478;2023-06-14T00:35:16;2.55;;;1.90;;
12112;SDS011;6120;52.250;8.478;2023-06-14T00:37:43;2.47;;;1.80;;
12112;SDS011;6120;52.250;8.478;2023-06-14T00:40:10;2.10;;;1.90;;
12112;SDS011;6120;52.250;8.478;2023-06-14T00:42:36;1.92;;;1.73;;
12112;SDS011;6120;52.250;8.478;2023-06-14T00:45:03;1.80;;;1.70;;
12112;SDS011;6120;52.250;8.478;2023-06-14T00:47:30;2.10;;;1.90;;
12112;SDS011;6120;52.250;8.478;2023-06-14T00:49:57;1.95;;;1.80;;
12112;SDS011;6120;52.250;8.478;2023-06-14T00:52:25;1.70;;;1.60;;
12112;SDS011;6120;52.250;8.478;2023-06-14T00:54:51;1.95;;;1.85;;
12112;SDS011;6120;52.250;8.478;2023-06-14T00:57:18;1.83;;;1.73;;
12112;SDS011;6120;52.250;8.478;2023-06-14T00:59:46;1.80;;;1.70;;
12112;SDS011;6120;52.250;8.478;2023-06-14T01:02:13;2.17;;;1.98;;
12112;SDS011;6120;52.250;8.478;2023-06-14T01:04:47;2.13;;;1.92;;
12112;SDS011;6120;52.250;8.478;2023-06-14T01:12:50;2.10;;;1.85;;
12112;SDS011;6120;52.250;8.478;2023-06-14T01:15:20;2.10;;;1.90;;
12112;SDS011;6120;52.250;8.478;2023-06-14T01:17:48;2.08;;;1.98;;
12112;SDS011;6120;52.250;8.478;2023-06-14T01:20:19;2.00;;;1.90;;
12112;SDS011;6120;52.250;8.478;2023-06-14T01:25:22;1.70;;;1.60;;
12112;SDS011;6120;52.250;8.478;2023-06-14T01:27:50;3.15;;;2.05;;
12112;SDS011;6120;52.250;8.478;2023-06-14T01:30:18;1.90;;;1.80;;
12112;SDS011;6120;52.250;8.478;2023-06-14T01:32:47;2.17;;;2.03;;
12112;SDS011;6120;52.250;8.478;2023-06-14T01:35:15;1.80;;;1.65;;
12112;SDS011;6120;52.250;8.478;2023-06-14T01:37:42;1.95;;;1.73;;
12112;SDS011;6120;52.250;8.478;2023-06-14T01:40:09;1.83;;;1.73;;
12112;SDS011;6120;52.250;8.478;2023-06-14T01:42:38;2.17;;;1.90;;
12112;SDS011;6120;52.250;8.478;2023-06-14T01:45:05;2.15;;;1.95;;
12112;SDS011;6120;52.250;8.478;2023-06-14T01:47:32;1.97;;;1.63;;
12112;SDS011;6120;52.250;8.478;2023-06-14T01:50:01;2.05;;;1.85;;
12112;SDS011;6120;52.250;8.478;2023-06-14T01:52:29;1.88;;;1.77;;
12112;SDS011;6120;52.250;8.478;2023-06-14T01:54:56;1.98;;;1.77;;
12112;SDS011;6120;52.250;8.478;2023-06-14T01:57:24;1.98;;;1.80;;
12112;SDS011;6120;52.250;8.478;2023-06-14T02:02:19;1.90;;;1.70;;
12112;SDS011;6120;52.250;8.478;2023-06-14T02:04:45;2.42;;;2.08;;
12112;SDS011;6120;52.250;8.478;2023-06-14T02:07:13;1.85;;;1.75;;
12112;SDS011;6120;52.250;8.478;2023-06-14T02:09:41;2.10;;;1.90;;
12112;SDS011;6120;52.250;8.478;2023-06-14T02:12:08;1.85;;;1.70;;
12112;SDS011;6120;52.250;8.478;2023-06-14T02:14:35;1.80;;;1.70;;
12112;SDS011;6120;52.250;8.478;2023-06-14T02:17:01;2.22;;;1.98;;
12112;SDS011;6120;52.250;8.478;2023-06-14T02:19:28;2.10;;;1.90;;
12112;SDS011;6120;52.250;8.478;2023-06-14T02:21:55;1.90;;;1.80;;
12112;SDS011;6120;52.250;8.478;2023-06-14T02:24:21;1.90;;;1.70;;
12112;SDS011;6120;52.250;8.478;2023-06-14T02:26:50;2.28;;;2.08;;
12112;SDS011;6120;52.250;8.478;2023-06-14T02:29:16;2.10;;;1.90;;
12112;SDS011;6120;52.250;8.478;2023-06-14T02:31:43;2.13;;;1.92;;
12112;SDS011;6120;52.250;8.478;2023-06-14T02:34:10;2.20;;;2.00;;
12112;SDS011;6120;52.250;8.478;2023-06-14T02:36:36;1.65;;;1.50;;
12112;SDS011;6120;52.250;8.478;2023-06-14T02:39:08;1.80;;;1.70;;
12112;SDS011;6120;52.250;8.478;2023-06-14T02:41:38;2.55;;;1.85;;
12112;SDS011;6120;52.250;8.478;2023-06-14T02:44:05;1.83;;;1.73;;
12112;SDS011;6120;52.250;8.478;2023-06-14T02:46:32;1.98;;;1.85;;
12112;SDS011;6120;52.250;8.478;2023-06-14T02:48:59;1.90;;;1.70;;
12112;SDS011;6120;52.250;8.478;2023-06-14T02:51:26;1.70;;;1.60;;
12112;SDS011;6120;52.250;8.478;2023-06-14T02:53:53;1.90;;;1.80;;
12112;SDS011;6120;52.250;8.478;2023-06-14T02:56:19;2.17;;;2.00;;
12112;SDS011;6120;52.250;8.478;2023-06-14T02:58:46;1.90;;;1.80;;
12112;SDS011;6120;52.250;8.478;2023-06-14T03:01:15;1.73;;;1.63;;
12112;SDS011;6120;52.250;8.478;2023-06-14T03:03:42;1.80;;;1.70;;
12112;SDS011;6120;52.250;8.478;2023-06-14T03:06:09;2.00;;;1.80;;
12112;SDS011;6120;52.250;8.478;2023-06-14T03:08:39;2.35;;;2.08;;
12112;SDS011;6120;52.250;8.478;2023-06-14T03:11:08;2.42;;;1.63;;
12112;SDS011;6120;52.250;8.478;2023-06-14T03:13:37;1.63;;;1.52;;
12112;SDS011;6120;52.250;8.478;2023-06-14T03:16:05;2.03;;;1.70;;
12112;SDS011;6120;52.250;8.478;2023-06-14T03:23:29;2.13;;;1.98;;
12112;SDS011;6120;52.250;8.478;2023-06-14T03:25:55;2.42;;;2.22;;
12112;SDS011;6120;52.250;8.478;2023-06-14T03:28:22;2.13;;;1.92;;
12112;SDS011;6120;52.250;8.478;2023-06-14T03:30:49;2.30;;;1.83;;
12112;SDS011;6120;52.250;8.478;2023-06-14T03:33:16;2.30;;;2.10;;
12112;SDS011;6120;52.250;8.478;2023-06-14T03:35:43;2.17;;;1.77;;
12112;SDS011;6120;52.250;8.478;2023-06-14T03:38:10;2.05;;;1.90;;
12112;SDS011;6120;52.250;8.478;2023-06-14T03:40:36;1.98;;;1.88;;
12112;SDS011;6120;52.250;8.478;2023-06-14T03:43:03;1.95;;;1.80;;
12112;SDS011;6120;52.250;8.478;2023-06-14T03:45:30;2.38;;;2.00;;
12112;SDS011;6120;52.250;8.478;2023-06-14T03:47:56;1.95;;;1.73;;
12112;SDS011;6120;52.250;8.478;2023-06-14T03:50:23;2.13;;;1.98;;
12112;SDS011;6120;52.250;8.478;2023-06-14T03:52:50;1.75;;;1.65;;
12112;SDS011;6120;52.250;8.478;2023-06-14T03:55:16;1.70;;;1.60;;
12112;SDS011;6120;52.250;8.478;2023-06-14T03:57:46;1.88;;;1.77;;
12112;SDS011;6120;52.250;8.478;2023-06-14T04:00:13;2.70;;;1.95;;
12112;SDS011;6120;52.250;8.478;2023-06-14T04:02:40;2.05;;;1.85;;
12112;SDS011;6120;52.250;8.478;2023-06-14T04:05:07;2.10;;;1.90;;
12112;SDS011;6120;52.250;8.478;2023-06-14T04:07:35;1.80;;;1.70;;
12112;SDS011;6120;52.250;8.478;2023-06-14T04:10:07;1.83;;;1.73;;
12112;SDS011;6120;52.250;8.478;2023-06-14T04:12:37;1.70;;;1.60;;
12112;SDS011;6120;52.250;8.478;2023-06-14T04:15:04;2.17;;;1.90;;
12112;SDS011;6120;52.250;8.478;2023-06-14T04:17:47;1.70;;;1.60;;
12112;SDS011;6120;52.250;8.478;2023-06-14T04:20:14;1.80;;;1.70;;
12112;SDS011;6120;52.250;8.478;2023-06-14T04:22:40;2.00;;;1.80;;
12112;SDS011;6120;52.250;8.478;2023-06-14T04:25:09;2.55;;;2.00;;
12112;SDS011;6120;52.250;8.478;2023-06-14T04:27:37;1.75;;;1.65;;
12112;SDS011;6120;52.250;8.478;2023-06-14T04:30:04;1.80;;;1.70;;
12112;SDS011;6120;52.250;8.478;2023-06-14T04:32:32;2.10;;;1.90;;
12112;SDS011;6120;52.250;8.478;2023-06-14T04:35:06;1.77;;;1.67;;
12112;SDS011;6120;52.250;8.478;2023-06-14T04:37:33;2.13;;;1.85;;
12112;SDS011;6120;52.250;8.478;2023-06-14T04:40:00;1.95;;;1.75;;
12112;SDS011;6120;52.250;8.478;2023-06-14T04:42:27;2.22;;;2.03;;
12112;SDS011;6120;52.250;8.478;2023-06-14T04:44:57;2.30;;;1.92;;
12112;SDS011;6120;52.250;8.478;2023-06-14T04:47:24;1.90;;;1.70;;
12112;SDS011;6120;52.250;8.478;2023-06-14T04:49:59;1.77;;;1.67;;
12112;SDS011;6120;52.250;8.478;2023-06-14T04:52:27;2.10;;;1.90;;
12112;SDS011;6120;52.250;8.478;2023-06-14T04:54:56;1.63;;;1.52;;
12112;SDS011;6120;52.250;8.478;2023-06-14T04:57:23;1.73;;;1.63;;
12112;SDS011;6120;52.250;8.478;2023-06-14T04:59:51;1.70;;;1.60;;
12112;SDS011;6120;52.250;8.478;2023-06-14T05:02:22;1.95;;;1.75;;
12112;SDS011;6120;52.250;8.478;2023-06-14T05:04:50;2.17;;;1.98;;
12112;SDS011;6120;52.250;8.478;2023-06-14T05:07:17;2.28;;;2.08;;
12112;SDS011;6120;52.250;8.478;2023-06-14T05:09:44;2.08;;;1.98;;
12112;SDS011;6120;52.250;8.478;2023-06-14T05:12:11;2.00;;;1.90;;
12112;SDS011;6120;52.250;8.478;2023-06-14T05:14:38;1.95;;;1.80;;
12112;SDS011;6120;52.250;8.478;2023-06-14T05:17:05;1.80;;;1.70;;
12112;SDS011;6120;52.250;8.478;2023-06-14T05:19:32;2.03;;;1.90;;
12112;SDS011;6120;52.250;8.478;2023-06-14T05:21:59;1.98;;;1.88;;
12112;SDS011;6120;52.250;8.478;2023-06-14T05:24:25;2.00;;;1.90;;
12112;SDS011;6120;52.250;8.478;2023-06-14T05:26:52;1.85;;;1.75;;
12112;SDS011;6120;52.250;8.478;2023-06-14T05:29:19;2.00;;;1.80;;
12112;SDS011;6120;52.250;8.478;2023-06-14T05:31:46;2.05;;;1.85;;
12112;SDS011;6120;52.250;8.478;2023-06-14T05:34:13;2.60;;;1.80;;
12112;SDS011;6120;52.250;8.478;2023-06-14T05:36:39;1.98;;;1.73;;
12112;SDS011;6120;52.250;8.478;2023-06-14T05:39:06;2.03;;;1.90;;
12112;SDS011;6120;52.250;8.478;2023-06-14T05:41:33;1.90;;;1.80;;
12112;SDS011;6120;52.250;8.478;2023-06-14T05:43:59;1.85;;;1.50;;
12112;SDS011;6120;52.250;8.478;2023-06-14T05:46:26;2.97;;;1.85;;
12112;SDS011;6120;52.250;8.478;2023-06-14T05:48:54;2.20;;;2.00;;
12112;SDS011;6120;52.250;8.478;2023-06-14T05:51:22;2.35;;;2.15;;
12112;SDS011;6120;52.250;8.478;2023-06-14T05:53:51;2.05;;;1.90;;
12112;SDS011;6120;52.250;8.478;2023-06-14T05:56:18;2.15;;;1.95;;
12112;SDS011;6120;52.250;8.478;2023-06-14T05:58:45;2.05;;;1.90;;
12112;SDS011;6120;52.250;8.478;2023-06-14T06:01:13;2.25;;;2.00;;
12112;SDS011;6120;52.250;8.478;2023-06-14T06:03:40;2.72;;;2.13;;
12112;SDS011;6120;52.250;8.478;2023-06-14T06:06:07;2.22;;;2.00;;
12112;SDS011;6120;52.250;8.478;2023-06-14T06:08:34;2.55;;;1.92;;
12112;SDS011;6120;52.250;8.478;2023-06-14T06:11:01;1.90;;;1.80;;
12112;SDS011;6120;52.250;8.478;2023-06-14T06:13:28;2.25;;;2.05;;
12112;SDS011;6120;52.250;8.478;2023-06-14T06:15:54;2.10;;;2.00;;
12112;SDS011;6120;52.250;8.478;2023-06-14T06:18:22;2.40;;;2.20;;
12112;SDS011;6120;52.250;8.478;2023-06-14T06:20:49;2.03;;;1.80;;
12112;SDS011;6120;52.250;8.478;2023-06-14T06:23:16;2.17;;;1.98;;
12112;SDS011;6120;52.250;8.478;2023-06-14T06:25:43;1.98;;;1.80;;
12112;SDS011;6120;52.250;8.478;2023-06-14T06:28:10;2.20;;;2.00;;
12112;SDS011;6120;52.250;8.478;2023-06-14T06:30:37;2.50;;;2.00;;
12112;SDS011;6120;52.250;8.478;2023-06-14T06:33:04;2.30;;;1.90;;
12112;SDS011;6120;52.250;8.478;2023-06-14T06:35:32;1.77;;;1.67;;
12112;SDS011;6120;52.250;8.478;2023-06-14T06:37:59;2.05;;;1.95;;
12112;SDS011;6120;52.250;8.478;2023-06-14T06:40:27;2.35;;;2.15;;
12112;SDS011;6120;52.250;8.478;2023-06-14T06:42:54;2.28;;;2.00;;
12112;SDS011;6120;52.250;8.478;2023-06-14T06:45:21;2.30;;;2.10;;
12112;SDS011;6120;52.250;8.478;2023-06-14T06:47:51;1.98;;;1.88;;
12112;SDS011;6120;52.250;8.478;2023-06-14T06:50:18;2.72;;;1.95;;
12112;SDS011;6120;52.250;8.478;2023-06-14T06:52:46;1.92;;;1.80;;
12112;SDS011;6120;52.250;8.478;2023-06-14T06:55:13;2.15;;;1.95;;
12112;SDS011;6120;52.250;8.478;2023-06-14T06:57:41;2.45;;;2.10;;
12112;SDS011;6120;52.250;8.478;2023-06-14T07:00:08;2.20;;;2.00;;
12112;SDS011;6120;52.250;8.478;2023-06-14T07:02:39;1.95;;;1.85;;
12112;SDS011;6120;52.250;8.478;2023-06-14T07:05:07;1.95;;;1.77;;
12112;SDS011;6120;52.250;8.478;2023-06-14T07:07:34;2.13;;;1.95;;
12112;SDS011;6120;52.250;8.478;2023-06-14T07:10:01;1.90;;;1.80;;
12112;SDS011;6120;52.250;8.478;2023-06-14T07:12:33;2.10;;;1.90;;
12112;SDS011;6120;52.250;8.478;2023-06-14T07:15:02;1.83;;;1.73;;
12112;SDS011;6120;52.250;8.478;2023-06-14T07:17:29;2.05;;;1.85;;
12112;SDS011;6120;52.250;8.478;2023-06-14T07:19:56;2.00;;;1.77;;
12112;SDS011;6120;52.250;8.478;2023-06-14T07:22:22;2.08;;;1.90;;
12112;SDS011;6120;52.250;8.478;2023-06-14T07:24:49;1.80;;;1.70;;
12112;SDS011;6120;52.250;8.478;2023-06-14T07:27:16;2.00;;;1.80;;
12112;SDS011;6120;52.250;8.478;2023-06-14T07:29:42;2.00;;;1.90;;
12112;SDS011;6120;52.250;8.478;2023-06-14T07:32:09;1.90;;;1.70;;
12112;SDS011;6120;52.250;8.478;2023-06-14T07:34:36;1.90;;;1.80;;
12112;SDS011;6120;52.250;8.478;2023-06-14T07:37:02;1.90;;;1.80;;
12112;SDS011;6120;52.250;8.478;2023-06-14T07:39:29;4.70;;;1.80;;
12112;SDS011;6120;52.250;8.478;2023-06-14T07:41:56;2.00;;;1.80;;
12112;SDS011;6120;52.250;8.478;2023-06-14T07:44:22;1.90;;;1.80;;
12112;SDS011;6120;52.250;8.478;2023-06-14T07:46:49;1.80;;;1.70;;
12112;SDS011;6120;52.250;8.478;2023-06-14T07:49:16;2.80;;;1.83;;
12112;SDS011;6120;52.250;8.478;2023-06-14T07:51:43;1.80;;;1.70;;
12112;SDS011;6120;52.250;8.478;2023-06-14T07:54:11;1.70;;;1.60;;
12112;SDS011;6120;52.250;8.478;2023-06-14T07:56:38;1.70;;;1.60;;
12112;SDS011;6120;52.250;8.478;2023-06-14T07:59:04;2.95;;;1.60;;
12112;SDS011;6120;52.250;8.478;2023-06-14T08:01:32;1.65;;;1.55;;
12112;SDS011;6120;52.250;8.478;2023-06-14T08:03:59;1.73;;;1.63;;
12112;SDS011;6120;52.250;8.478;2023-06-14T08:06:26;1.88;;;1.77;;
12112;SDS011;6120;52.250;8.478;2023-06-14T08:08:53;2.03;;;1.83;;
12112;SDS011;6120;52.250;8.478;2023-06-14T08:11:20;2.05;;;1.85;;
12112;SDS011;6120;52.250;8.478;2023-06-14T08:13:47;1.60;;;1.50;;
12112;SDS011;6120;52.250;8.478;2023-06-14T08:16:13;1.70;;;1.60;;
12112;SDS011;6120;52.250;8.478;2023-06-14T08:18:40;1.70;;;1.60;;
12112;SDS011;6120;52.250;8.478;2023-06-14T08:21:07;1.60;;;1.50;;
12112;SDS011;6120;52.250;8.478;2023-06-14T08:23:33;2.28;;;1.70;;
12112;SDS011;6120;52.250;8.478;2023-06-14T08:26:00;1.88;;;1.63;;
12112;SDS011;6120;52.250;8.478;2023-06-14T08:28:27;1.65;;;1.55;;
12112;SDS011;6120;52.250;8.478;2023-06-14T08:30:54;1.80;;;1.70;;
12112;SDS011;6120;52.250;8.478;2023-06-14T08:33:21;1.90;;;1.80;;
12112;SDS011;6120;52.250;8.478;2023-06-14T08:35:49;1.80;;;1.70;;
12112;SDS011;6120;52.250;8.478;2023-06-14T08:38:16;2.20;;;1.80;;
12112;SDS011;6120;52.250;8.478;2023-06-14T08:40:43;1.48;;;1.38;;
12112;SDS011;6120;52.250;8.478;2023-06-14T08:43:11;1.67;;;1.58;;
12112;SDS011;6120;52.250;8.478;2023-06-14T08:45:38;1.60;;;1.50;;
12112;SDS011;6120;52.250;8.478;2023-06-14T08:48:05;1.80;;;1.70;;
12112;SDS011;6120;52.250;8.478;2023-06-14T08:50:33;1.60;;;1.50;;
12112;SDS011;6120;52.250;8.478;2023-06-14T08:53:02;1.70;;;1.60;;
12112;SDS011;6120;52.250;8.478;2023-06-14T08:55:30;1.73;;;1.63;;
12112;SDS011;6120;52.250;8.478;2023-06-14T08:58:02;1.88;;;1.50;;
12112;SDS011;6120;52.250;8.478;2023-06-14T09:00:30;1.67;;;1.58;;
12112;SDS011;6120;52.250;8.478;2023-06-14T09:02:59;1.52;;;1.42;;
12112;SDS011;6120;52.250;8.478;2023-06-14T09:05:26;3.15;;;1.50;;
12112;SDS011;6120;52.250;8.478;2023-06-14T09:07:54;1.42;;;1.33;;
12112;SDS011;6120;52.250;8.478;2023-06-14T09:10:21;1.98;;;1.85;;
12112;SDS011;6120;52.250;8.478;2023-06-14T09:12:49;2.08;;;1.85;;
12112;SDS011;6120;52.250;8.478;2023-06-14T09:15:15;1.40;;;1.30;;
12112;SDS011;6120;52.250;8.478;2023-06-14T09:17:43;1.15;;;1.08;;
12112;SDS011;6120;52.250;8.478;2023-06-14T09:20:09;1.50;;;1.40;;
12112;SDS011;6120;52.250;8.478;2023-06-14T09:22:37;1.50;;;1.40;;
12112;SDS011;6120;52.250;8.478;2023-06-14T09:25:04;1.48;;;1.38;;
12112;SDS011;6120;52.250;8.478;2023-06-14T09:27:32;1.50;;;1.40;;
12112;SDS011;6120;52.250;8.478;2023-06-14T09:30:03;1.23;;;1.20;;
12112;SDS011;6120;52.250;8.478;2023-06-14T09:32:31;1.30;;;1.20;;
12112;SDS011;6120;52.250;8.478;2023-06-14T09:34:58;1.95;;;1.38;;
12112;SDS011;6120;52.250;8.478;2023-06-14T09:37:28;1.55;;;1.45;;
12112;SDS011;6120;52.250;8.478;2023-06-14T09:39:58;1.40;;;1.30;;
12112;SDS011;6120;52.250;8.478;2023-06-14T09:42:25;1.42;;;1.25;;
12112;SDS011;6120;52.250;8.478;2023-06-14T09:44:56;1.63;;;1.40;;
12112;SDS011;6120;52.250;8.478;2023-06-14T09:47:23;1.48;;;1.23;;
12112;SDS011;6120;52.250;8.478;2023-06-14T09:49:51;1.80;;;1.20;;
12112;SDS011;6120;52.250;8.478;2023-06-14T09:52:21;1.40;;;1.30;;
12112;SDS011;6120;52.250;8.478;2023-06-14T09:54:49;1.60;;;1.50;;
12112;SDS011;6120;52.250;8.478;2023-06-14T09:57:16;1.30;;;1.20;;
12112;SDS011;6120;52.250;8.478;2023-06-14T09:59:47;2.25;;;1.60;;
12112;SDS011;6120;52.250;8.478;2023-06-14T10:02:28;1.52;;;1.40;;
12112;SDS011;6120;52.250;8.478;2023-06-14T10:05:00;1.45;;;1.35;;
12112;SDS011;6120;52.250;8.478;2023-06-14T10:07:34;1.60;;;1.50;;
12112;SDS011;6120;52.250;8.478;2023-06-14T10:10:02;1.50;;;1.40;;
12112;SDS011;6120;52.250;8.478;2023-06-14T10:12:29;1.50;;;1.40;;
12112;SDS011;6120;52.250;8.478;2023-06-14T10:14:56;1.40;;;1.30;;
12112;SDS011;6120;52.250;8.478;2023-06-14T10:23:18;1.52;;;1.42;;
12112;SDS011;6120;52.250;8.478;2023-06-14T10:25:49;1.65;;;1.30;;
12112;SDS011;6120;52.250;8.478;2023-06-14T10:28:17;1.52;;;1.42;;
12112;SDS011;6120;52.250;8.478;2023-06-14T10:31:01;2.25;;;1.40;;
12112;SDS011;6120;52.250;8.478;2023-06-14T10:33:36;1.40;;;1.30;;
12112;SDS011;6120;52.250;8.478;2023-06-14T10:38:45;1.40;;;1.30;;
12112;SDS011;6120;52.250;8.478;2023-06-14T10:41:11;1.40;;;1.30;;
12112;SDS011;6120;52.250;8.478;2023-06-14T10:43:38;1.25;;;1.15;;
12112;SDS011;6120;52.250;8.478;2023-06-14T10:46:14;1.40;;;1.30;;
12112;SDS011;6120;52.250;8.478;2023-06-14T10:48:42;1.40;;;1.30;;
12112;SDS011;6120;52.250;8.478;2023-06-14T10:51:19;1.50;;;1.40;;
12112;SDS011;6120;52.250;8.478;2023-06-14T10:53:47;1.50;;;1.38;;
12112;SDS011;6120;52.250;8.478;2023-06-14T10:56:30;1.48;;;1.38;;
12112;SDS011;6120;52.250;8.478;2023-06-14T10:58:57;1.48;;;1.38;;
12112;SDS011;6120;52.250;8.478;2023-06-14T11:01:38;1.70;;;1.40;;
12112;SDS011;6120;52.250;8.478;2023-06-14T11:04:09;1.30;;;1.20;;
12112;SDS011;6120;52.250;8.478;2023-06-14T11:06:47;1.45;;;1.35;;
12112;SDS011;6120;52.250;8.478;2023-06-14T11:11:52;1.42;;;1.30;;
12112;SDS011;6120;52.250;8.478;2023-06-14T11:14:20;1.40;;;1.30;;
12112;SDS011;6120;52.250;8.478;2023-06-14T11:16:48;1.50;;;1.40;;
12112;SDS011;6120;52.250;8.478;2023-06-14T11:19:16;1.42;;;1.33;;
12112;SDS011;6120;52.250;8.478;2023-06-14T11:21:49;1.50;;;1.40;;
12112;SDS011;6120;52.250;8.478;2023-06-14T11:24:16;1.48;;;1.38;;
12112;SDS011;6120;52.250;8.478;2023-06-14T11:26:44;1.48;;;1.38;;
12112;SDS011;6120;52.250;8.478;2023-06-14T11:29:11;3.35;;;1.40;;
12112;SDS011;6120;52.250;8.478;2023-06-14T11:31:42;1.23;;;1.17;;
12112;SDS011;6120;52.250;8.478;2023-06-14T11:34:11;1.88;;;1.77;;
12112;SDS011;6120;52.250;8.478;2023-06-14T11:36:38;1.67;;;1.57;;
12112;SDS011;6120;52.250;8.478;2023-06-14T11:39:06;1.40;;;1.30;;
12112;SDS011;6120;52.250;8.478;2023-06-14T11:41:40;1.10;;;1.10;;
12112;SDS011;6120;52.250;8.478;2023-06-14T11:44:08;1.38;;;1.27;;
12112;SDS011;6120;52.250;8.478;2023-06-14T11:46:35;1.30;;;1.20;;
12112;SDS011;6120;52.250;8.478;2023-06-14T11:49:02;1.48;;;1.38;;
12112;SDS011;6120;52.250;8.478;2023-06-14T11:51:32;1.50;;;1.40;;
12112;SDS011;6120;52.250;8.478;2023-06-14T11:56:26;3.27;;;1.27;;
12112;SDS011;6120;52.250;8.478;2023-06-14T11:58:53;1.33;;;1.23;;
12112;SDS011;6120;52.250;8.478;2023-06-14T12:01:23;1.40;;;1.30;;
12112;SDS011;6120;52.250;8.478;2023-06-14T12:03:50;1.50;;;1.40;;
12112;SDS011;6120;52.250;8.478;2023-06-14T12:06:24;1.30;;;1.20;;
12112;SDS011;6120;52.250;8.478;2023-06-14T12:08:55;1.60;;;1.50;;
12112;SDS011;6120;52.250;8.478;2023-06-14T12:13:49;1.50;;;1.40;;
12112;SDS011;6120;52.250;8.478;2023-06-14T12:16:15;3.03;;;1.50;;
12112;SDS011;6120;52.250;8.478;2023-06-14T12:18:42;1.38;;;1.27;;
12112;SDS011;6120;52.250;8.478;2023-06-14T12:21:10;1.38;;;1.27;;
12112;SDS011;6120;52.250;8.478;2023-06-14T12:23:46;1.83;;;1.30;;
12112;SDS011;6120;52.250;8.478;2023-06-14T12:26:17;1.50;;;1.40;;
12112;SDS011;6120;52.250;8.478;2023-06-14T12:28:45;1.70;;;1.50;;
12112;SDS011;6120;52.250;8.478;2023-06-14T12:33:40;1.43;;;1.33;;
12112;SDS011;6120;52.250;8.478;2023-06-14T12:36:08;1.60;;;1.50;;
12112;SDS011;6120;52.250;8.478;2023-06-14T12:38:35;1.60;;;1.50;;
12112;SDS011;6120;52.250;8.478;2023-06-14T12:41:02;1.33;;;1.23;;
12112;SDS011;6120;52.250;8.478;2023-06-14T12:43:29;1.42;;;1.33;;
12112;SDS011;6120;52.250;8.478;2023-06-14T12:45:56;1.50;;;1.40;;
12112;SDS011;6120;52.250;8.478;2023-06-14T12:48:23;1.40;;;1.30;;
12112;SDS011;6120;52.250;8.478;2023-06-14T12:50:49;1.40;;;1.30;;
12112;SDS011;6120;52.250;8.478;2023-06-14T12:53:16;1.40;;;1.30;;
12112;SDS011;6120;52.250;8.478;2023-06-14T12:55:43;2.00;;;1.80;;
12112;SDS011;6120;52.250;8.478;2023-06-14T12:58:10;1.58;;;1.48;;
12112;SDS011;6120;52.250;8.478;2023-06-14T13:00:39;1.65;;;1.55;;
12112;SDS011;6120;52.250;8.478;2023-06-14T13:03:06;1.40;;;1.30;;
12112;SDS011;6120;52.250;8.478;2023-06-14T13:05:33;1.75;;;1.40;;
12112;SDS011;6120;52.250;8.478;2023-06-14T13:08:00;1.67;;;1.50;;
12112;SDS011;6120;52.250;8.478;2023-06-14T13:10:27;1.60;;;1.50;;
12112;SDS011;6120;52.250;8.478;2023-06-14T13:12:54;1.50;;;1.40;;
12112;SDS011;6120;52.250;8.478;2023-06-14T13:15:21;1.42;;;1.33;;
12112;SDS011;6120;52.250;8.478;2023-06-14T13:17:48;1.40;;;1.30;;
12112;SDS011;6120;52.250;8.478;2023-06-14T13:20:15;1.92;;;1.65;;
12112;SDS011;6120;52.250;8.478;2023-06-14T13:22:45;1.70;;;1.60;;
12112;SDS011;6120;52.250;8.478;2023-06-14T13:25:12;1.40;;;1.30;;
12112;SDS011;6120;52.250;8.478;2023-06-14T13:27:39;1.70;;;1.60;;
12112;SDS011;6120;52.250;8.478;2023-06-14T13:30:06;1.55;;;1.45;;
12112;SDS011;6120;52.250;8.478;2023-06-14T13:32:33;1.60;;;1.50;;
12112;SDS011;6120;52.250;8.478;2023-06-14T13:35:00;1.83;;;1.60;;
12112;SDS011;6120;52.250;8.478;2023-06-14T13:37:27;1.60;;;1.50;;
12112;SDS011;6120;52.250;8.478;2023-06-14T13:39:54;1.80;;;1.70;;
12112;SDS011;6120;52.250;8.478;2023-06-14T13:42:21;1.65;;;1.55;;
12112;SDS011;6120;52.250;8.478;2023-06-14T13:44:48;1.83;;;1.73;;
12112;SDS011;6120;52.250;8.478;2023-06-14T13:47:14;1.70;;;1.60;;
12112;SDS011;6120;52.250;8.478;2023-06-14T13:49:42;1.80;;;1.70;;
12112;SDS011;6120;52.250;8.478;2023-06-14T13:52:08;1.80;;;1.70;;
12112;SDS011;6120;52.250;8.478;2023-06-14T13:54:35;1.92;;;1.83;;
12112;SDS011;6120;52.250;8.478;2023-06-14T13:57:02;1.90;;;1.80;;
12112;SDS011;6120;52.250;8.478;2023-06-14T13:59:29;2.33;;;1.90;;
12112;SDS011;6120;52.250;8.478;2023-06-14T14:01:56;1.70;;;1.60;;
12112;SDS011;6120;52.250;8.478;2023-06-14T14:04:23;1.90;;;1.80;;
12112;SDS011;6120;52.250;8.478;2023-06-14T14:06:50;1.63;;;1.52;;
12112;SDS011;6120;52.250;8.478;2023-06-14T14:09:16;1.65;;;1.55;;
12112;SDS011;6120;52.250;8.478;2023-06-14T14:11:43;2.20;;;1.80;;
12112;SDS011;6120;52.250;8.478;2023-06-14T14:14:10;1.67;;;1.58;;
12112;SDS011;6120;52.250;8.478;2023-06-14T14:16:37;1.85;;;1.73;;
12112;SDS011;6120;52.250;8.478;2023-06-14T14:19:04;1.85;;;1.65;;
12112;SDS011;6120;52.250;8.478;2023-06-14T14:21:32;1.75;;;1.65;;
12112;SDS011;6120;52.250;8.478;2023-06-14T14:23:59;1.80;;;1.70;;
12112;SDS011;6120;52.250;8.478;2023-06-14T14:26:26;2.05;;;1.70;;
12112;SDS011;6120;52.250;8.478;2023-06-14T14:28:52;1.90;;;1.80;;
12112;SDS011;6120;52.250;8.478;2023-06-14T14:31:19;1.50;;;1.40;;
12112;SDS011;6120;52.250;8.478;2023-06-14T14:33:46;1.60;;;1.50;;
12112;SDS011;6120;52.250;8.478;2023-06-14T14:36:12;1.52;;;1.42;;
12112;SDS011;6120;52.250;8.478;2023-06-14T14:38:40;2.00;;;1.77;;
12112;SDS011;6120;52.250;8.478;2023-06-14T14:41:06;1.50;;;1.40;;
12112;SDS011;6120;52.250;8.478;2023-06-14T14:43:33;1.58;;;1.48;;
12112;SDS011;6120;52.250;8.478;2023-06-14T14:46:00;1.60;;;1.50;;
12112;SDS011;6120;52.250;8.478;2023-06-14T14:48:26;1.73;;;1.63;;
12112;SDS011;6120;52.250;8.478;2023-06-14T14:50:53;1.63;;;1.52;;
12112;SDS011;6120;52.250;8.478;2023-06-14T14:53:20;1.50;;;1.40;;
12112;SDS011;6120;52.250;8.478;2023-06-14T14:55:46;1.85;;;1.50;;
12112;SDS011;6120;52.250;8.478;2023-06-14T14:58:13;1.95;;;1.30;;
12112;SDS011;6120;52.250;8.478;2023-06-14T15:00:46;1.50;;;1.40;;
12112;SDS011;6120;52.250;8.478;2023-06-14T15:03:13;2.45;;;1.60;;
12112;SDS011;6120;52.250;8.478;2023-06-14T15:05:40;1.63;;;1.53;;
12112;SDS011;6120;52.250;8.478;2023-06-14T15:08:07;1.67;;;1.58;;
12112;SDS011;6120;52.250;8.478;2023-06-14T15:10:38;1.45;;;1.35;;
12112;SDS011;6120;52.250;8.478;2023-06-14T15:13:07;1.70;;;1.60;;
12112;SDS011;6120;52.250;8.478;2023-06-14T15:15:34;1.60;;;1.50;;
12112;SDS011;6120;52.250;8.478;2023-06-14T15:18:02;1.92;;;1.67;;
12112;SDS011;6120;52.250;8.478;2023-06-14T15:20:29;1.60;;;1.50;;
12112;SDS011;6120;52.250;8.478;2023-06-14T15:22:56;1.63;;;1.50;;
12112;SDS011;6120;52.250;8.478;2023-06-14T15:25:29;2.00;;;1.58;;
12112;SDS011;6120;52.250;8.478;2023-06-14T15:27:56;1.52;;;1.42;;
12112;SDS011;6120;52.250;8.478;2023-06-14T15:30:23;2.05;;;1.70;;
12112;SDS011;6120;52.250;8.478;2023-06-14T15:32:49;1.58;;;1.48;;
12112;SDS011;6120;52.250;8.478;2023-06-14T15:35:17;1.52;;;1.42;;
12112;SDS011;6120;52.250;8.478;2023-06-14T15:37:47;1.92;;;1.70;;